createdAt,value
2017-12-20T00:00:53.810Z,13.10
2017-12-20T00:02:00.634Z,13.90
2017-12-20T00:03:07.450Z,12.10
2017-12-20T00:04:14.266Z,11.70
2017-12-20T00:05:21.106Z,12.40
2017-12-20T00:06:27.985Z,11.90
2017-12-20T00:07:34.850Z,13.70
2017-12-20T00:08:41.630Z,12.30
2017-12-20T00:09:48.372Z,10.50
2017-12-20T00:10:55.230Z,13.20
2017-12-20T00:12:02.005Z,11.40
2017-12-20T00:13:08.760Z,11.80
2017-12-20T00:14:15.637Z,12.80
2017-12-20T00:15:22.431Z,12.70
2017-12-20T00:16:29.247Z,12.70
2017-12-20T00:17:36.049Z,12.80
2017-12-20T00:18:42.809Z,11.60
2017-12-20T00:19:49.606Z,14.50
2017-12-20T00:20:56.458Z,12.80
2017-12-20T00:22:03.230Z,14.30
2017-12-20T00:23:09.998Z,13.80
2017-12-20T00:24:16.851Z,11.90
2017-12-20T00:25:23.605Z,14.40
2017-12-20T00:26:30.345Z,11.30
2017-12-20T00:27:37.129Z,13.60
2017-12-20T00:28:43.943Z,15.20
2017-12-20T00:29:55.702Z,12.50
2017-12-20T00:30:57.495Z,12.70
2017-12-20T00:32:04.446Z,11.40
2017-12-20T00:33:11.198Z,12.90
2017-12-20T00:34:17.940Z,11.60
2017-12-20T00:35:24.785Z,14.00
2017-12-20T00:36:31.565Z,12.40
2017-12-20T00:37:38.362Z,12.30
2017-12-20T00:38:45.218Z,12.30
2017-12-20T00:39:51.979Z,13.50
2017-12-20T00:40:58.745Z,13.80
2017-12-20T00:42:05.486Z,11.70
2017-12-20T00:43:12.306Z,13.40
2017-12-20T00:44:19.075Z,12.80
2017-12-20T00:45:25.817Z,14.90
2017-12-20T00:46:32.590Z,15.30
2017-12-20T00:47:39.369Z,12.50
2017-12-20T00:48:46.130Z,10.50
2017-12-20T00:49:52.918Z,13.40
2017-12-20T00:50:59.773Z,14.00
2017-12-20T00:52:06.534Z,12.40
2017-12-20T00:53:13.311Z,14.00
2017-12-20T00:54:20.189Z,12.80
2017-12-20T00:55:27.043Z,14.40
2017-12-20T00:56:33.791Z,14.40
2017-12-20T00:57:40.641Z,11.20
2017-12-20T00:58:47.413Z,13.30
2017-12-20T00:59:54.192Z,13.10
2017-12-20T01:01:01.025Z,13.60
2017-12-20T01:02:07.795Z,11.90
2017-12-20T01:03:14.577Z,13.30
2017-12-20T01:04:21.310Z,14.00
2017-12-20T01:05:28.142Z,14.80
2017-12-20T01:06:34.978Z,11.20
2017-12-20T01:07:41.766Z,12.30
2017-12-20T01:08:48.539Z,12.80
2017-12-20T01:09:55.325Z,14.70
2017-12-20T01:11:02.046Z,14.40
2017-12-20T01:12:08.953Z,14.90
2017-12-20T01:13:15.740Z,14.50
2017-12-20T01:14:22.499Z,13.30
2017-12-20T01:15:29.229Z,13.70
2017-12-20T01:16:36.022Z,14.30
2017-12-20T01:17:42.782Z,13.70
2017-12-20T01:18:49.538Z,12.90
2017-12-20T01:19:56.418Z,12.60
2017-12-20T01:21:03.162Z,15.90
2017-12-20T01:22:09.946Z,14.50
2017-12-20T01:23:16.691Z,15.20
2017-12-20T01:24:23.541Z,14.90
2017-12-20T01:25:30.430Z,15.50
2017-12-20T01:26:37.153Z,14.50
2017-12-20T01:27:43.954Z,14.70
2017-12-20T01:28:50.708Z,14.00
2017-12-20T01:29:57.518Z,14.20
2017-12-20T01:31:04.290Z,14.40
2017-12-20T01:32:11.138Z,12.40
2017-12-20T01:33:17.898Z,14.10
2017-12-20T01:34:24.650Z,12.60
2017-12-20T01:35:31.475Z,11.90
2017-12-20T01:36:38.238Z,14.40
2017-12-20T01:37:45.021Z,15.40
2017-12-20T01:38:51.887Z,14.00
2017-12-20T01:39:58.686Z,13.10
2017-12-20T01:41:05.460Z,12.30
2017-12-20T01:42:12.314Z,13.50
2017-12-20T01:43:19.097Z,10.80
2017-12-20T01:44:25.889Z,12.80
2017-12-20T01:45:32.761Z,13.50
2017-12-20T01:46:39.555Z,13.60
2017-12-20T01:47:46.298Z,14.50
2017-12-20T01:48:53.134Z,14.80
2017-12-20T01:49:59.906Z,13.60
2017-12-20T01:51:06.735Z,13.70
2017-12-20T01:52:13.546Z,15.00
2017-12-20T01:53:20.317Z,12.20
2017-12-20T01:54:27.205Z,14.80
2017-12-20T01:55:33.991Z,10.90
2017-12-20T01:56:40.938Z,14.40
2017-12-20T01:57:47.726Z,13.60
2017-12-20T01:58:54.621Z,12.00
2017-12-20T02:00:01.503Z,13.00
2017-12-20T02:01:08.286Z,14.00
2017-12-20T02:02:15.098Z,13.20
2017-12-20T02:03:21.919Z,12.90
2017-12-20T02:04:28.688Z,13.40
2017-12-20T02:05:35.558Z,14.70
2017-12-20T02:06:42.346Z,14.50
2017-12-20T02:07:49.121Z,11.80
2017-12-20T02:08:55.911Z,14.20
2017-12-20T02:10:02.734Z,13.80
2017-12-20T02:11:09.510Z,14.40
2017-12-20T02:12:16.318Z,15.50
2017-12-20T02:13:23.157Z,13.20
2017-12-20T02:14:29.969Z,12.40
2017-12-20T02:15:36.792Z,13.10
2017-12-20T02:16:43.606Z,12.20
2017-12-20T02:17:50.370Z,11.90
2017-12-20T02:18:57.204Z,13.80
2017-12-20T02:20:04.023Z,14.40
2017-12-20T02:21:10.882Z,18.40
2017-12-20T02:22:17.817Z,14.00
2017-12-20T02:23:24.694Z,15.60
2017-12-20T02:24:31.674Z,13.40
2017-12-20T02:25:38.540Z,13.90
2017-12-20T02:26:45.374Z,16.10
2017-12-20T02:27:52.245Z,14.70
2017-12-20T02:28:59.162Z,15.40
2017-12-20T02:30:06.109Z,13.50
2017-12-20T02:31:12.949Z,13.80
2017-12-20T02:32:19.821Z,13.20
2017-12-20T02:33:26.725Z,13.20
2017-12-20T02:34:33.660Z,15.00
2017-12-20T02:35:40.518Z,11.40
2017-12-20T02:36:47.377Z,15.00
2017-12-20T02:37:54.290Z,13.40
2017-12-20T02:39:01.149Z,13.20
2017-12-20T02:40:08.132Z,14.30
2017-12-20T02:41:14.950Z,14.70
2017-12-20T02:42:21.854Z,13.80
2017-12-20T02:43:28.687Z,15.00
2017-12-20T02:44:35.643Z,15.70
2017-12-20T02:45:42.581Z,14.10
2017-12-20T02:46:49.432Z,13.70
2017-12-20T02:47:56.246Z,15.90
2017-12-20T02:49:03.081Z,16.10
2017-12-20T02:50:09.923Z,15.20
2017-12-20T02:51:16.758Z,16.10
2017-12-20T02:52:23.619Z,13.10
2017-12-20T02:53:30.433Z,14.50
2017-12-20T02:54:37.208Z,16.20
2017-12-20T02:55:44.216Z,16.00
2017-12-20T02:56:51.169Z,17.60
2017-12-20T02:57:58.006Z,15.60
2017-12-20T02:59:04.777Z,15.00
2017-12-20T03:00:11.588Z,15.20
2017-12-20T03:01:18.458Z,18.70
2017-12-20T03:02:25.337Z,13.70
2017-12-20T03:03:32.117Z,16.20
2017-12-20T03:04:39.003Z,16.00
2017-12-20T03:05:45.798Z,17.40
2017-12-20T03:06:52.742Z,16.50
2017-12-20T03:07:59.501Z,16.90
2017-12-20T03:09:06.382Z,14.20
2017-12-20T03:10:13.345Z,16.50
2017-12-20T03:11:20.137Z,18.30
2017-12-20T03:12:26.905Z,17.10
2017-12-20T03:13:33.705Z,21.00
2017-12-20T03:14:40.430Z,16.50
2017-12-20T03:15:47.221Z,16.00
2017-12-20T03:16:53.993Z,16.40
2017-12-20T03:18:00.769Z,16.90
2017-12-20T03:19:07.548Z,18.20
2017-12-20T03:20:14.273Z,20.30
2017-12-20T03:21:21.037Z,18.40
2017-12-20T03:22:27.857Z,17.80
2017-12-20T03:23:34.618Z,16.90
2017-12-20T03:24:41.452Z,20.50
2017-12-20T03:25:48.310Z,16.60
2017-12-20T03:26:55.043Z,15.90
2017-12-20T03:28:01.845Z,18.80
2017-12-20T03:29:08.693Z,17.60
2017-12-20T03:30:15.438Z,19.00
2017-12-20T03:31:22.205Z,17.90
2017-12-20T03:32:28.932Z,15.40
2017-12-20T03:33:35.763Z,17.40
2017-12-20T03:34:42.613Z,15.30
2017-12-20T03:35:49.345Z,17.90
2017-12-20T03:36:56.205Z,19.30
2017-12-20T03:38:03.029Z,15.20
2017-12-20T03:39:09.775Z,16.10
2017-12-20T03:40:16.610Z,14.90
2017-12-20T03:41:23.405Z,18.20
2017-12-20T03:42:30.197Z,17.90
2017-12-20T03:43:37.014Z,16.00
2017-12-20T03:44:43.789Z,18.40
2017-12-20T03:45:50.529Z,18.20
2017-12-20T03:46:57.297Z,16.20
2017-12-20T03:48:04.073Z,18.30
2017-12-20T03:49:10.825Z,17.20
2017-12-20T03:50:17.586Z,17.10
2017-12-20T03:51:24.493Z,17.90
2017-12-20T03:52:31.286Z,17.10
2017-12-20T03:53:38.117Z,20.80
2017-12-20T03:54:44.936Z,16.30
2017-12-20T03:55:52.073Z,16.40
2017-12-20T03:56:58.890Z,15.80
2017-12-20T03:58:05.659Z,16.60
2017-12-20T03:59:12.491Z,18.10
2017-12-20T04:00:19.222Z,17.70
2017-12-20T04:01:25.990Z,17.40
2017-12-20T04:02:32.765Z,18.80
2017-12-20T04:03:39.572Z,17.30
2017-12-20T04:04:46.353Z,18.00
2017-12-20T04:05:53.105Z,18.10
2017-12-20T04:06:59.852Z,20.10
2017-12-20T04:08:06.657Z,17.10
2017-12-20T04:09:13.413Z,18.20
2017-12-20T04:10:20.173Z,20.60
2017-12-20T04:11:26.930Z,20.60
2017-12-20T04:12:33.761Z,15.60
2017-12-20T04:13:40.501Z,21.30
2017-12-20T04:14:47.279Z,20.30
2017-12-20T04:15:54.129Z,20.60
2017-12-20T04:17:00.868Z,19.00
2017-12-20T04:18:07.627Z,18.20
2017-12-20T04:19:14.717Z,17.30
2017-12-20T04:20:21.445Z,18.70
2017-12-20T04:21:28.149Z,17.30
2017-12-20T04:22:34.954Z,19.40
2017-12-20T04:23:41.743Z,18.10
2017-12-20T04:24:48.490Z,20.20
2017-12-20T04:25:55.353Z,18.70
2017-12-20T04:27:02.099Z,22.00
2017-12-20T04:28:08.825Z,16.10
2017-12-20T04:29:15.618Z,20.30
2017-12-20T04:30:22.393Z,19.20
2017-12-20T04:31:29.125Z,20.60
2017-12-20T04:32:35.918Z,19.80
2017-12-20T04:33:42.654Z,20.50
2017-12-20T04:34:49.454Z,17.70
2017-12-20T04:35:56.184Z,17.40
2017-12-20T04:37:02.906Z,16.70
2017-12-20T04:38:09.750Z,19.40
2017-12-20T04:39:16.496Z,17.60
2017-12-20T04:40:23.244Z,18.30
2017-12-20T04:41:30.001Z,19.30
2017-12-20T04:42:36.705Z,19.90
2017-12-20T04:43:43.488Z,22.20
2017-12-20T04:44:50.288Z,22.30
2017-12-20T04:45:57.026Z,17.50
2017-12-20T04:47:03.749Z,19.80
2017-12-20T04:48:10.677Z,19.00
2017-12-20T04:49:17.401Z,18.80
2017-12-20T04:50:24.161Z,19.80
2017-12-20T04:51:30.937Z,18.20
2017-12-20T04:52:37.657Z,19.10
2017-12-20T04:53:44.426Z,21.20
2017-12-20T04:54:51.145Z,19.30
2017-12-20T04:55:57.874Z,18.60
2017-12-20T04:57:04.636Z,19.00
2017-12-20T04:58:11.329Z,17.40
2017-12-20T04:59:18.075Z,18.00
2017-12-20T05:00:24.789Z,19.00
2017-12-20T05:01:31.528Z,20.40
2017-12-20T05:02:38.310Z,20.10
2017-12-20T05:03:45.075Z,19.00
2017-12-20T05:04:51.824Z,18.20
2017-12-20T05:05:58.602Z,17.10
2017-12-20T05:07:05.380Z,17.40
2017-12-20T05:08:12.141Z,19.90
2017-12-20T05:09:18.886Z,18.20
2017-12-20T05:10:25.645Z,19.60
2017-12-20T05:11:32.449Z,20.00
2017-12-20T05:12:39.216Z,21.50
2017-12-20T05:13:45.997Z,20.00
2017-12-20T05:14:52.837Z,20.70
2017-12-20T05:15:59.561Z,24.10
2017-12-20T05:17:06.333Z,20.70
2017-12-20T05:18:13.078Z,20.20
2017-12-20T05:19:19.893Z,20.70
2017-12-20T05:20:26.637Z,20.00
2017-12-20T05:21:33.396Z,18.40
2017-12-20T05:22:40.168Z,19.10
2017-12-20T05:23:46.977Z,20.40
2017-12-20T05:24:53.733Z,20.50
2017-12-20T05:26:00.498Z,21.60
2017-12-20T05:27:07.253Z,18.40
2017-12-20T05:28:14.060Z,21.90
2017-12-20T05:29:20.846Z,17.80
2017-12-20T05:30:27.592Z,19.60
2017-12-20T05:31:34.349Z,18.90
2017-12-20T05:32:41.185Z,19.60
2017-12-20T05:33:47.928Z,21.70
2017-12-20T05:34:54.699Z,21.00
2017-12-20T05:36:01.429Z,20.70
2017-12-20T05:37:08.209Z,18.20
2017-12-20T05:38:14.997Z,18.10
2017-12-20T05:39:21.751Z,17.10
2017-12-20T05:40:28.505Z,16.80
2017-12-20T05:41:35.279Z,18.10
2017-12-20T05:42:42.026Z,20.70
2017-12-20T05:43:48.833Z,23.10
2017-12-20T05:44:55.701Z,21.20
2017-12-20T05:46:02.630Z,18.90
2017-12-20T05:47:09.555Z,19.60
2017-12-20T05:48:16.605Z,21.40
2017-12-20T05:49:23.272Z,19.20
2017-12-20T05:50:30.068Z,19.50
2017-12-20T05:51:37.061Z,25.10
2017-12-20T05:52:43.822Z,21.60
2017-12-20T05:53:50.581Z,20.60
2017-12-20T05:54:57.300Z,19.10
2017-12-20T05:56:04.098Z,24.50
2017-12-20T05:57:10.850Z,19.40
2017-12-20T05:58:17.630Z,24.10
2017-12-20T05:59:24.369Z,20.50
2017-12-20T06:00:31.177Z,24.70
2017-12-20T06:01:37.913Z,22.70
2017-12-20T06:02:44.749Z,20.00
2017-12-20T06:03:51.622Z,20.20
2017-12-20T06:04:58.379Z,20.60
2017-12-20T06:06:05.082Z,20.30
2017-12-20T06:07:11.829Z,25.30
2017-12-20T06:08:18.645Z,20.30
2017-12-20T06:09:25.474Z,19.30
2017-12-20T06:10:32.286Z,22.70
2017-12-20T06:11:39.086Z,23.80
2017-12-20T06:12:45.829Z,20.10
2017-12-20T06:13:52.599Z,17.70
2017-12-20T06:14:59.362Z,19.90
2017-12-20T06:16:06.145Z,25.00
2017-12-20T06:17:12.990Z,25.30
2017-12-20T06:18:19.721Z,22.50
2017-12-20T06:19:26.562Z,28.20
2017-12-20T06:20:33.384Z,22.30
2017-12-20T06:21:40.129Z,20.10
2017-12-20T06:22:46.977Z,21.90
2017-12-20T06:23:53.737Z,22.60
2017-12-20T06:25:00.525Z,21.40
2017-12-20T06:26:07.278Z,21.80
2017-12-20T06:27:14.057Z,21.00
2017-12-20T06:28:20.786Z,23.70
2017-12-20T06:29:27.546Z,21.10
2017-12-20T06:30:34.328Z,23.00
2017-12-20T06:31:41.125Z,20.10
2017-12-20T06:32:47.898Z,21.20
2017-12-20T06:33:54.649Z,22.10
2017-12-20T06:35:01.393Z,22.50
2017-12-20T06:36:08.209Z,23.30
2017-12-20T06:37:14.966Z,25.00
2017-12-20T06:38:21.725Z,24.60
2017-12-20T06:39:28.464Z,25.00
2017-12-20T06:40:35.297Z,24.30
2017-12-20T06:41:42.080Z,25.70
2017-12-20T06:42:48.840Z,26.30
2017-12-20T06:43:55.597Z,23.10
2017-12-20T06:45:02.349Z,27.10
2017-12-20T06:46:09.142Z,23.10
2017-12-20T06:47:15.925Z,26.90
2017-12-20T06:48:22.733Z,30.80
2017-12-20T06:49:29.473Z,24.80
2017-12-20T06:50:36.230Z,26.10
2017-12-20T06:51:43.002Z,25.30
2017-12-20T06:52:49.882Z,23.70
2017-12-20T06:53:56.677Z,21.40
2017-12-20T06:55:03.409Z,25.30
2017-12-20T06:56:10.230Z,24.50
2017-12-20T06:57:17.014Z,20.10
2017-12-20T06:58:23.762Z,24.80
2017-12-20T06:59:30.677Z,25.60
2017-12-20T07:00:37.425Z,27.20
2017-12-20T07:01:44.181Z,23.70
2017-12-20T07:02:50.910Z,25.60
2017-12-20T07:03:57.704Z,24.70
2017-12-20T07:05:04.437Z,23.10
2017-12-20T07:06:11.214Z,25.10
2017-12-20T07:07:17.977Z,22.30
2017-12-20T07:08:24.878Z,25.20
2017-12-20T07:09:31.636Z,24.80
2017-12-20T07:10:38.453Z,23.10
2017-12-20T07:11:45.173Z,20.60
2017-12-20T07:12:51.938Z,25.90
2017-12-20T07:13:58.697Z,26.00
2017-12-20T07:15:05.440Z,24.80
2017-12-20T07:16:12.401Z,24.70
2017-12-20T07:17:19.192Z,25.00
2017-12-20T07:18:26.100Z,25.20
2017-12-20T07:19:32.846Z,24.00
2017-12-20T07:20:39.580Z,23.60
2017-12-20T07:21:46.409Z,21.30
2017-12-20T07:22:53.173Z,25.50
2017-12-20T07:23:59.925Z,26.70
2017-12-20T07:25:06.673Z,23.20
2017-12-20T07:26:13.453Z,23.20
2017-12-20T07:27:20.205Z,20.60
2017-12-20T07:28:26.986Z,23.40
2017-12-20T07:29:33.774Z,23.60
2017-12-20T07:30:40.513Z,19.20
2017-12-20T07:31:47.276Z,22.20
2017-12-20T07:32:54.017Z,24.00
2017-12-20T07:34:00.774Z,24.60
2017-12-20T07:35:07.572Z,27.40
2017-12-20T07:36:14.349Z,26.10
2017-12-20T07:37:21.121Z,24.20
2017-12-20T07:38:27.977Z,25.40
2017-12-20T07:39:34.762Z,25.90
2017-12-20T07:40:41.531Z,27.70
2017-12-20T07:41:48.381Z,28.30
2017-12-20T07:42:55.157Z,28.10
2017-12-20T07:44:01.980Z,23.70
2017-12-20T07:45:08.785Z,23.00
2017-12-20T07:46:15.505Z,24.70
2017-12-20T07:47:22.274Z,22.20
2017-12-20T07:48:28.988Z,27.20
2017-12-20T07:49:35.821Z,26.80
2017-12-20T07:50:42.537Z,21.50
2017-12-20T07:51:49.270Z,23.20
2017-12-20T07:52:56.042Z,22.70
2017-12-20T07:54:02.898Z,29.30
2017-12-20T07:55:09.642Z,24.80
2017-12-20T07:56:16.388Z,22.30
2017-12-20T07:57:23.117Z,24.60
2017-12-20T07:58:29.996Z,24.50
2017-12-20T07:59:36.717Z,29.40
2017-12-20T08:00:43.495Z,25.60
2017-12-20T08:01:50.405Z,30.80
2017-12-20T08:02:57.246Z,22.90
2017-12-20T08:04:04.089Z,25.00
2017-12-20T08:05:10.840Z,27.50
2017-12-20T08:06:17.692Z,25.40
2017-12-20T08:07:24.541Z,22.10
2017-12-20T08:08:31.383Z,22.90
2017-12-20T08:09:38.181Z,25.10
2017-12-20T08:10:44.981Z,23.70
2017-12-20T08:11:51.707Z,24.00
2017-12-20T08:12:58.485Z,27.70
2017-12-20T08:14:05.245Z,26.80
2017-12-20T08:15:12.021Z,27.00
2017-12-20T08:16:18.721Z,27.20
2017-12-20T08:17:25.465Z,27.20
2017-12-20T08:18:32.199Z,27.60
2017-12-20T08:19:38.918Z,28.00
2017-12-20T08:20:45.732Z,26.70
2017-12-20T08:21:52.465Z,30.00
2017-12-20T08:22:59.188Z,24.60
2017-12-20T08:24:05.925Z,24.70
2017-12-20T08:25:12.829Z,25.90
2017-12-20T08:26:19.691Z,25.20
2017-12-20T08:27:26.572Z,26.90
2017-12-20T08:28:33.350Z,25.90
2017-12-20T08:29:40.100Z,25.60
2017-12-20T08:30:46.845Z,22.90
2017-12-20T08:31:53.677Z,24.50
2017-12-20T08:33:00.497Z,24.40
2017-12-20T08:34:07.562Z,24.50
2017-12-20T08:35:14.831Z,27.40
2017-12-20T08:36:21.222Z,23.80
2017-12-20T08:37:28.009Z,28.20
2017-12-20T08:38:34.839Z,26.90
2017-12-20T08:39:41.610Z,22.30
2017-12-20T08:40:48.685Z,25.70
2017-12-20T08:41:55.466Z,27.40
2017-12-20T08:43:02.255Z,30.50
2017-12-20T08:44:08.952Z,25.30
2017-12-20T08:45:15.670Z,27.60
2017-12-20T08:46:22.494Z,27.00
2017-12-20T08:47:29.203Z,26.60
2017-12-20T08:48:35.940Z,26.60
2017-12-20T08:49:42.637Z,28.20
2017-12-20T08:50:49.430Z,29.90
2017-12-20T08:51:56.192Z,26.40
2017-12-20T08:53:02.964Z,23.80
2017-12-20T08:54:09.713Z,26.30
2017-12-20T08:55:16.409Z,27.90
2017-12-20T08:56:23.201Z,32.90
2017-12-20T08:57:29.889Z,27.00
2017-12-20T08:58:36.596Z,24.40
2017-12-20T08:59:43.301Z,26.80
2017-12-20T09:00:49.997Z,24.70
2017-12-20T09:01:56.749Z,23.20
2017-12-20T09:03:03.445Z,27.30
2017-12-20T09:04:10.249Z,26.10
2017-12-20T09:05:16.954Z,26.20
2017-12-20T09:06:23.725Z,26.50
2017-12-20T09:07:30.517Z,31.50
2017-12-20T09:08:37.329Z,25.90
2017-12-20T09:09:44.042Z,22.50
2017-12-20T09:10:50.788Z,27.10
2017-12-20T09:11:57.562Z,28.30
2017-12-20T09:13:04.388Z,27.00
2017-12-20T09:14:11.188Z,27.00
2017-12-20T09:15:17.913Z,22.90
2017-12-20T09:16:24.645Z,24.70
2017-12-20T09:17:31.372Z,27.10
2017-12-20T09:18:38.141Z,27.40
2017-12-20T09:19:44.857Z,22.90
2017-12-20T09:20:51.582Z,29.90
2017-12-20T09:21:58.343Z,27.10
2017-12-20T09:23:05.073Z,29.40
2017-12-20T09:24:11.841Z,26.50
2017-12-20T09:25:18.562Z,31.00
2017-12-20T09:26:25.281Z,33.30
2017-12-20T09:27:32.044Z,27.10
2017-12-20T09:28:38.857Z,28.00
2017-12-20T09:29:45.576Z,27.10
2017-12-20T09:30:52.316Z,32.40
2017-12-20T09:31:59.101Z,28.40
2017-12-20T09:33:05.874Z,27.80
2017-12-20T09:34:12.626Z,29.00
2017-12-20T09:35:19.353Z,28.40
2017-12-20T09:36:26.085Z,31.70
2017-12-20T09:37:32.995Z,29.70
2017-12-20T09:38:39.808Z,27.80
2017-12-20T09:39:46.533Z,31.20
2017-12-20T09:40:53.317Z,34.80
2017-12-20T09:42:00.042Z,25.70
2017-12-20T09:43:06.811Z,32.40
2017-12-20T09:44:13.526Z,34.00
2017-12-20T09:45:20.348Z,23.80
2017-12-20T09:46:27.104Z,27.70
2017-12-20T09:47:33.881Z,26.80
2017-12-20T09:48:40.725Z,29.80
2017-12-20T09:49:47.469Z,27.90
2017-12-20T09:50:54.205Z,31.60
2017-12-20T09:52:00.938Z,22.30
2017-12-20T09:53:07.875Z,36.40
2017-12-20T09:54:14.619Z,29.20
2017-12-20T09:55:21.362Z,28.10
2017-12-20T09:56:28.148Z,30.40
2017-12-20T09:57:34.874Z,27.70
2017-12-20T09:58:41.640Z,28.70
2017-12-20T09:59:48.373Z,29.60
2017-12-20T10:00:55.093Z,29.50
2017-12-20T10:02:01.892Z,27.60
2017-12-20T10:03:08.649Z,35.10
2017-12-20T10:04:15.425Z,30.90
2017-12-20T10:05:22.142Z,28.30
2017-12-20T10:06:28.952Z,31.20
2017-12-20T10:07:35.649Z,31.10
2017-12-20T10:08:42.392Z,30.90
2017-12-20T10:09:49.141Z,29.20
2017-12-20T10:10:55.894Z,28.90
2017-12-20T10:12:02.666Z,31.20
2017-12-20T10:13:09.430Z,25.70
2017-12-20T10:14:16.207Z,30.80
2017-12-20T10:15:23.093Z,31.90
2017-12-20T10:16:29.849Z,30.80
2017-12-20T10:17:36.613Z,29.00
2017-12-20T10:18:43.377Z,35.70
2017-12-20T10:19:50.189Z,29.90
2017-12-20T10:20:56.946Z,30.30
2017-12-20T10:22:03.701Z,28.20
2017-12-20T10:23:10.434Z,26.70
2017-12-20T10:24:17.242Z,29.60
2017-12-20T10:25:24.013Z,32.40
2017-12-20T10:26:30.770Z,100.00
2017-12-20T10:27:37.501Z,47.90
2017-12-20T10:28:44.289Z,41.00
2017-12-20T10:29:51.028Z,38.60
2017-12-20T10:30:57.794Z,36.30
2017-12-20T10:32:04.539Z,33.40
2017-12-20T10:33:11.361Z,32.10
2017-12-20T10:34:18.110Z,36.20
2017-12-20T10:35:24.937Z,32.30
2017-12-20T10:36:31.764Z,30.30
2017-12-20T10:37:38.537Z,29.90
2017-12-20T10:38:45.301Z,32.70
2017-12-20T10:39:52.037Z,33.50
2017-12-20T10:40:58.833Z,27.30
2017-12-20T10:42:05.568Z,31.70
2017-12-20T10:43:12.338Z,27.30
2017-12-20T10:44:19.088Z,27.20
2017-12-20T10:45:25.880Z,27.10
2017-12-20T10:46:32.672Z,31.70
2017-12-20T10:47:39.437Z,34.50
2017-12-20T10:48:46.407Z,28.70
2017-12-20T10:49:53.247Z,36.80
2017-12-20T10:51:00.113Z,65.40
2017-12-20T10:52:06.865Z,56.40
2017-12-20T10:53:13.648Z,33.50
2017-12-20T10:54:20.373Z,29.10
2017-12-20T10:55:27.133Z,34.20
2017-12-20T10:56:33.928Z,28.00
2017-12-20T10:57:40.673Z,32.00
2017-12-20T10:58:47.465Z,58.80
2017-12-20T10:59:54.217Z,56.80
2017-12-20T11:01:00.973Z,44.50
2017-12-20T11:02:08.002Z,40.40
2017-12-20T11:03:14.732Z,37.00
2017-12-20T11:04:21.469Z,27.80
2017-12-20T11:05:28.236Z,24.70
2017-12-20T11:06:35.084Z,26.40
2017-12-20T11:07:41.797Z,30.20
2017-12-20T11:08:48.540Z,26.90
2017-12-20T11:09:55.269Z,27.10
2017-12-20T11:11:03.929Z,26.60
2017-12-20T11:12:09.257Z,29.80
2017-12-20T11:13:16.554Z,31.00
2017-12-20T11:14:22.786Z,26.20
2017-12-20T11:15:29.788Z,25.60
2017-12-20T11:16:36.569Z,24.60
2017-12-20T11:17:43.441Z,25.50
2017-12-20T11:18:50.210Z,29.00
2017-12-20T11:19:56.963Z,23.40
2017-12-20T11:21:03.691Z,26.80
2017-12-20T11:22:10.456Z,29.00
2017-12-20T11:23:17.257Z,27.00
2017-12-20T11:24:24.023Z,28.90
2017-12-20T11:25:30.833Z,26.90
2017-12-20T11:26:37.548Z,29.10
2017-12-20T11:27:44.273Z,27.90
2017-12-20T11:28:50.993Z,25.30
2017-12-20T11:29:57.867Z,26.30
2017-12-20T11:31:04.592Z,22.50
2017-12-20T11:32:11.360Z,29.30
2017-12-20T11:33:18.120Z,21.30
2017-12-20T11:34:25.114Z,22.70
2017-12-20T11:35:31.917Z,30.60
2017-12-20T11:36:38.708Z,41.20
2017-12-20T11:37:45.465Z,24.30
2017-12-20T11:38:52.265Z,23.40
2017-12-20T11:39:58.998Z,20.10
2017-12-20T11:41:05.776Z,26.80
2017-12-20T11:42:12.477Z,26.10
2017-12-20T11:43:19.201Z,26.30
2017-12-20T11:44:25.926Z,23.10
2017-12-20T11:45:32.622Z,25.80
2017-12-20T11:46:39.340Z,29.70
2017-12-20T11:47:46.088Z,20.50
2017-12-20T11:48:52.806Z,25.10
2017-12-20T11:49:59.506Z,22.90
2017-12-20T11:51:06.197Z,26.20
2017-12-20T11:52:12.998Z,51.10
2017-12-20T11:53:19.794Z,41.90
2017-12-20T11:54:26.485Z,40.20
2017-12-20T11:55:33.201Z,32.20
2017-12-20T11:56:39.888Z,26.20
2017-12-20T11:57:46.617Z,29.30
2017-12-20T11:58:53.414Z,24.60
2017-12-20T12:00:00.122Z,25.70
2017-12-20T12:01:06.889Z,27.00
2017-12-20T12:02:13.743Z,25.20
2017-12-20T12:03:20.520Z,24.30
2017-12-20T12:04:27.253Z,28.50
2017-12-20T12:05:33.950Z,30.70
2017-12-20T12:06:40.678Z,24.10
2017-12-20T12:07:47.493Z,27.40
2017-12-20T12:08:54.216Z,22.70
2017-12-20T12:10:00.972Z,21.80
2017-12-20T12:11:07.777Z,23.50
2017-12-20T12:12:14.537Z,23.70
2017-12-20T12:13:21.302Z,26.50
2017-12-20T12:14:28.073Z,24.40
2017-12-20T12:15:34.789Z,20.90
2017-12-20T12:16:41.581Z,25.30
2017-12-20T12:17:48.286Z,24.30
2017-12-20T12:18:55.041Z,25.40
2017-12-20T12:20:01.774Z,28.10
2017-12-20T12:21:08.533Z,30.20
2017-12-20T12:22:15.290Z,28.60
2017-12-20T12:23:22.001Z,28.80
2017-12-20T12:24:28.797Z,30.00
2017-12-20T12:25:35.509Z,23.20
2017-12-20T12:26:42.365Z,26.00
2017-12-20T12:27:49.176Z,22.70
2017-12-20T12:28:55.922Z,24.20
2017-12-20T12:30:02.654Z,27.10
2017-12-20T12:31:09.408Z,24.20
2017-12-20T12:32:16.192Z,23.40
2017-12-20T12:33:22.960Z,25.80
2017-12-20T12:34:29.673Z,23.70
2017-12-20T12:35:36.482Z,24.70
2017-12-20T12:36:43.232Z,25.30
2017-12-20T12:37:49.964Z,26.70
2017-12-20T12:38:56.717Z,24.70
2017-12-20T12:40:03.489Z,28.80
2017-12-20T12:41:10.214Z,26.70
2017-12-20T12:42:16.942Z,30.40
2017-12-20T12:43:23.656Z,28.00
2017-12-20T12:44:30.426Z,27.90
2017-12-20T12:45:37.170Z,28.90
2017-12-20T12:46:43.976Z,30.50
2017-12-20T12:47:50.708Z,27.20
2017-12-20T12:48:57.431Z,28.60
2017-12-20T12:50:04.257Z,29.60
2017-12-20T12:51:11.012Z,24.90
2017-12-20T12:52:17.750Z,23.90
2017-12-20T12:53:24.497Z,27.80
2017-12-20T12:54:31.325Z,25.00
2017-12-20T12:55:38.045Z,26.60
2017-12-20T12:56:44.868Z,29.40
2017-12-20T12:57:51.613Z,27.30
2017-12-20T12:58:58.402Z,29.70
2017-12-20T13:00:05.295Z,31.00
2017-12-20T13:01:12.289Z,25.90
2017-12-20T13:02:19.061Z,30.40
2017-12-20T13:03:26.122Z,29.90
2017-12-20T13:04:32.868Z,28.00
2017-12-20T13:05:39.702Z,29.30
2017-12-20T13:06:46.492Z,26.80
2017-12-20T13:07:53.257Z,27.80
2017-12-20T13:08:59.962Z,30.30
2017-12-20T13:10:06.782Z,23.90
2017-12-20T13:11:13.502Z,29.10
2017-12-20T13:12:20.254Z,33.40
2017-12-20T13:13:27.018Z,29.20
2017-12-20T13:14:33.917Z,33.90
2017-12-20T13:15:40.650Z,26.70
2017-12-20T13:16:47.421Z,34.60
2017-12-20T13:17:54.226Z,32.00
2017-12-20T13:19:00.937Z,29.40
2017-12-20T13:20:07.681Z,29.40
2017-12-20T13:21:14.397Z,29.00
2017-12-20T13:22:21.113Z,29.10
2017-12-20T13:23:27.933Z,27.00
2017-12-20T13:24:34.721Z,32.10
2017-12-20T13:25:41.434Z,31.90
2017-12-20T13:26:48.157Z,32.00
2017-12-20T13:27:54.997Z,34.90
2017-12-20T13:29:01.742Z,35.50
2017-12-20T13:30:08.497Z,35.40
2017-12-20T13:31:15.207Z,31.60
2017-12-20T13:32:21.910Z,38.60
2017-12-20T13:33:28.768Z,36.30
2017-12-20T13:34:35.502Z,35.30
2017-12-20T13:35:42.220Z,35.80
2017-12-20T13:36:48.940Z,39.90
2017-12-20T13:37:55.752Z,33.90
2017-12-20T13:39:02.424Z,31.70
2017-12-20T13:40:09.265Z,40.90
2017-12-20T13:41:15.951Z,35.30
2017-12-20T13:42:22.662Z,32.90
2017-12-20T13:43:29.550Z,36.70
2017-12-20T13:44:36.298Z,34.20
2017-12-20T13:45:43.022Z,32.80
2017-12-20T13:46:49.852Z,34.60
2017-12-20T13:47:56.558Z,35.90
2017-12-20T13:49:03.322Z,36.40
2017-12-20T13:50:10.052Z,31.80
2017-12-20T13:51:16.779Z,34.90
2017-12-20T13:52:23.569Z,31.60
2017-12-20T13:53:30.329Z,40.10
2017-12-20T13:54:37.065Z,38.30
2017-12-20T13:55:43.962Z,33.00
2017-12-20T13:56:50.670Z,31.10
2017-12-20T13:57:57.413Z,35.20
2017-12-20T13:59:04.176Z,37.20
2017-12-20T14:00:10.870Z,31.40
2017-12-20T14:01:17.693Z,30.80
2017-12-20T14:02:24.413Z,30.10
2017-12-20T14:03:31.240Z,36.00
2017-12-20T14:04:38.088Z,35.20
2017-12-20T14:05:44.797Z,38.40
2017-12-20T14:06:51.534Z,29.00
2017-12-20T14:07:58.230Z,31.00
2017-12-20T14:09:04.953Z,30.20
2017-12-20T14:10:11.641Z,32.30
2017-12-20T14:11:18.438Z,33.50
2017-12-20T14:12:25.134Z,31.30
2017-12-20T14:13:31.886Z,33.70
2017-12-20T14:14:38.625Z,33.70
2017-12-20T14:15:45.352Z,28.50
2017-12-20T14:16:52.142Z,31.90
2017-12-20T14:17:58.853Z,39.40
2017-12-20T14:19:05.553Z,30.30
2017-12-20T14:20:12.264Z,31.70